Time;durP1;ratioP1;P1;durP2;ratioP2;P2;SDS_P1;SDS_P2;PMS_P1;PMS_P2;Temp;Humidity;BMP_temperature;BMP_pressure;BME280_temperature;BME280_humidity;BME280_pressure;Samples;Min_cycle;Max_cycle;Signal;HPM_P1;HPM_P2
2022/03/20 14:58:23;;;;;;;12.43;8.20;;;;;;;5.44;33.40;98684.19;5153186;27;20288;-38
2022/03/20 15:00:54;;;;;;;12.37;7.57;;;;;;;5.40;33.70;98677.56;5152285;27;20446;-38
2022/03/20 15:03:21;;;;;;;17.07;8.20;;;;;;;5.45;33.47;98681.41;5152220;27;20511;-38
2022/03/20 15:05:48;;;;;;;9.13;5.80;;;;;;;5.30;33.25;98678.53;5152268;27;20491;-38
2022/03/20 15:13:46;;;;;;;13.10;7.53;;;;;;;5.01;32.47;98683.28;5131819;27;21018;-40
2022/03/20 15:16:13;;;;;;;16.57;7.23;;;;;;;4.81;32.85;98693.19;5129576;27;20445;-39
2022/03/20 15:18:41;;;;;;;14.30;7.97;;;;;;;4.81;33.27;98694.00;5129606;27;20452;-40
2022/03/20 15:21:08;;;;;;;10.70;7.33;;;;;;;4.80;32.90;98689.72;5130748;27;20449;-38
2022/03/20 15:23:36;;;;;;;21.73;9.40;;;;;;;4.72;33.41;98681.78;5131214;28;20827;-38
2022/03/20 15:26:03;;;;;;;13.83;8.93;;;;;;;4.68;33.38;98691.75;5131339;28;20487;-38
2022/03/20 15:28:31;;;;;;;17.23;8.00;;;;;;;4.64;33.79;98689.59;5131001;28;20480;-38
2022/03/20 15:31:03;;;;;;;10.20;8.03;;;;;;;4.60;33.80;98690.88;5131274;28;20448;-38
2022/03/20 15:33:35;;;;;;;9.90;7.97;;;;;;;4.61;34.04;98698.63;5131261;28;20430;-38
2022/03/20 15:36:03;;;;;;;11.00;9.07;;;;;;;4.58;34.22;98698.09;5130902;28;20445;-38
2022/03/20 15:38:30;;;;;;;10.83;7.73;;;;;;;4.58;34.11;98692.81;5131106;28;20897;-38
2022/03/20 15:40:58;;;;;;;17.77;8.17;;;;;;;4.55;34.16;98695.78;5130776;28;20524;-38
2022/03/20 15:43:25;;;;;;;13.10;8.07;;;;;;;4.47;34.02;98694.75;5130781;28;20441;-37
2022/03/20 15:45:52;;;;;;;15.07;7.97;;;;;;;4.44;34.16;98697.66;5130829;28;20441;-38
2022/03/20 15:48:21;;;;;;;11.60;8.57;;;;;;;4.39;34.19;98689.41;5130967;28;20437;-37
2022/03/20 15:50:49;;;;;;;14.90;7.80;;;;;;;4.29;34.47;98684.19;5130899;28;20786;-38
2022/03/20 15:53:16;;;;;;;20.03;13.43;;;;;;;4.33;34.65;98690.00;5149631;27;20444;-38
2022/03/20 15:55:43;;;;;;;22.20;9.37;;;;;;;4.29;34.25;98696.53;5151157;27;20476;-37
2022/03/20 15:58:10;;;;;;;21.40;9.23;;;;;;;4.26;34.86;98689.78;5143069;27;20472;-38
2022/03/20 16:00:38;;;;;;;12.43;8.10;;;;;;;4.24;35.02;98688.28;5137535;27;20808;-38
2022/03/20 16:03:05;;;;;;;11.70;7.20;;;;;;;4.25;35.05;98687.28;5137385;27;20441;-38
2022/03/20 16:05:34;;;;;;;16.83;9.80;;;;;;;4.19;35.02;98683.44;5137456;27;20536;-38
2022/03/20 16:08:01;;;;;;;20.30;11.47;;;;;;;4.19;35.42;98679.97;5136872;27;20481;-39
2022/03/20 16:10:29;;;;;;;19.27;11.93;;;;;;;4.20;36.07;98673.75;5137399;27;20916;-38
2022/03/20 16:13:01;;;;;;;22.60;13.23;;;;;;;4.16;35.66;98677.66;5137012;27;20437;-38
2022/03/20 16:15:28;;;;;;;16.43;9.50;;;;;;;4.06;36.50;98670.66;5136993;27;20430;-38
2022/03/20 16:17:56;;;;;;;21.73;10.40;;;;;;;4.08;37.74;98675.78;5136888;27;20798;-38
2022/03/20 16:20:23;;;;;;;33.33;15.57;;;;;;;4.12;38.33;98671.06;5136861;27;20494;-38
2022/03/20 16:28:32;;;;;;;30.70;20.83;;;;;;;4.13;39.16;98662.19;5129169;27;20436;-36
2022/03/20 16:31:00;;;;;;;46.93;22.50;;;;;;;4.15;39.63;98665.47;5136910;27;20472;-37
2022/03/20 16:33:28;;;;;;;49.10;20.67;;;;;;;4.15;40.12;98665.47;5136563;27;20971;-40
2022/03/20 16:35:55;;;;;;;41.97;20.80;;;;;;;4.14;40.10;98664.66;5136511;27;20476;-36
2022/03/20 16:38:45;;;;;;;29.23;17.47;;;;;;;4.10;40.09;98664.13;5136856;27;20972;-38
2022/03/20 16:41:13;;;;;;;28.70;15.03;;;;;;;4.06;39.81;98660.13;5136566;27;20429;-36
2022/03/20 16:43:42;;;;;;;24.83;13.10;;;;;;;4.00;39.51;98662.53;5136403;27;20438;-37
2022/03/20 16:46:10;;;;;;;23.40;12.17;;;;;;;3.97;40.23;98663.66;5136533;27;20469;-37
2022/03/20 16:48:38;;;;;;;22.50;13.73;;;;;;;3.96;40.63;98667.28;5136634;27;20449;-37
2022/03/20 16:51:06;;;;;;;18.00;12.03;;;;;;;3.89;40.35;98669.69;5136192;27;20441;-37
2022/03/20 16:53:34;;;;;;;29.47;17.97;;;;;;;3.82;40.50;98680.91;5136156;27;20521;-36
2022/03/20 16:56:21;;;;;;;29.00;18.10;;;;;;;3.74;41.03;98672.94;5135902;27;20448;-39
2022/03/20 16:58:50;;;;;;;23.33;14.20;;;;;;;3.65;40.08;98664.97;5136160;27;20437;-36
2022/03/20 17:01:17;;;;;;;21.83;13.43;;;;;;;3.60;40.67;98669.84;5136279;27;20974;-36
2022/03/20 17:03:45;;;;;;;20.73;11.17;;;;;;;3.57;40.01;98671.91;5135975;27;20445;-36
2022/03/20 17:06:12;;;;;;;23.13;10.90;;;;;;;3.49;41.06;98678.72;5135826;27;20856;-37
2022/03/20 17:08:39;;;;;;;22.40;13.60;;;;;;;3.45;40.39;98673.91;5136042;27;20445;-36
2022/03/20 17:11:08;;;;;;;22.43;11.20;;;;;;;3.27;40.64;98648.44;5135324;27;20497;-39
2022/03/20 17:16:23;;;;;;;66.87;30.67;;;;;;;2.96;40.54;98647.00;5133895;27;20429;-40
2022/03/20 17:18:51;;;;;;;35.23;19.43;;;;;;;2.99;41.00;98673.81;5114773;28;20450;-39
2022/03/20 17:24:08;;;;;;;24.60;10.57;;;;;;;2.73;43.55;98672.72;5113176;28;20877;-39
2022/03/20 17:26:36;;;;;;;24.63;12.70;;;;;;;2.54;43.73;98658.69;5114924;28;20561;-37
2022/03/20 17:29:05;;;;;;;22.07;9.80;;;;;;;2.59;43.66;98681.88;5114865;28;20452;-37
2022/03/20 17:31:32;;;;;;;24.27;11.97;;;;;;;2.59;43.82;98671.38;5115168;28;20438;-36
2022/03/20 17:34:00;;;;;;;28.63;13.20;;;;;;;2.64;43.51;98674.41;5114769;28;20499;-39
2022/03/20 17:36:27;;;;;;;20.77;11.27;;;;;;;2.62;43.22;98671.94;5114783;28;20488;-37
2022/03/20 17:38:55;;;;;;;28.97;12.67;;;;;;;2.59;43.21;98681.88;5115063;28;20442;-36
2022/03/20 17:41:23;;;;;;;15.40;9.83;;;;;;;2.60;43.93;98673.88;5115051;28;20894;-37
2022/03/20 17:43:50;;;;;;;28.20;14.80;;;;;;;2.61;44.25;98674.69;5114630;28;20442;-37
2022/03/20 17:46:19;;;;;;;22.93;14.97;;;;;;;2.61;44.00;98672.06;5114539;28;20871;-36
2022/03/20 17:51:27;;;;;;;22.97;13.60;;;;;;;2.52;44.96;98673.75;5111464;28;20443;-38
2022/03/20 17:53:54;;;;;;;32.37;17.50;;;;;;;2.59;44.57;98690.56;5114447;28;20477;-37
2022/03/20 17:56:24;;;;;;;41.00;18.60;;;;;;;2.58;44.61;98685.44;5114319;28;20607;-38
2022/03/20 18:01:34;;;;;;;55.93;27.87;;;;;;;2.56;44.01;98682.97;5097522;28;20444;-36
2022/03/20 18:09:35;;;;;;;42.03;21.10;;;;;;;2.50;44.86;98680.09;5113274;28;20426;-36
2022/03/20 18:12:04;;;;;;;31.23;14.70;;;;;;;2.40;44.35;98683.53;5114072;28;20529;-37
2022/03/20 18:14:31;;;;;;;26.60;17.10;;;;;;;2.36;43.48;98690.00;5114087;28;20446;-37
2022/03/20 18:17:00;;;;;;;27.00;16.83;;;;;;;2.24;44.47;98689.31;5114039;28;20486;-37
2022/03/20 18:19:27;;;;;;;38.23;21.37;;;;;;;2.15;45.29;98694.53;5114332;28;20453;-36
2022/03/20 18:21:55;;;;;;;70.57;35.73;;;;;;;2.13;45.46;98696.47;5113794;28;20921;-37
2022/03/20 18:24:22;;;;;;;81.20;37.53;;;;;;;2.11;45.71;98698.41;5114202;28;20445;-36
2022/03/20 18:26:49;;;;;;;82.20;37.60;;;;;;;2.12;45.83;98692.22;5114255;28;20556;-36
2022/03/20 18:29:16;;;;;;;71.77;39.60;;;;;;;2.08;45.84;98693.44;5114194;28;20488;-37
2022/03/20 18:31:44;;;;;;;76.00;33.13;;;;;;;2.07;46.14;98689.19;5113879;28;20444;-36
2022/03/20 18:34:12;;;;;;;59.50;35.50;;;;;;;2.04;45.36;98687.63;5114162;28;20493;-37
2022/03/20 18:36:40;;;;;;;103.30;57.20;;;;;;;2.00;45.88;98687.09;5113804;28;20443;-36
2022/03/20 18:39:07;;;;;;;82.63;43.50;;;;;;;1.99;45.60;98690.66;5113787;28;20448;-36
2022/03/20 18:41:34;;;;;;;79.10;38.50;;;;;;;2.01;45.85;98683.50;5114068;28;20477;-36
2022/03/20 18:44:02;;;;;;;120.70;55.60;;;;;;;2.01;45.66;98686.13;5113777;28;20498;-37
2022/03/20 18:46:29;;;;;;;122.20;57.67;;;;;;;1.98;45.08;98694.25;5114027;28;20841;-37
2022/03/20 18:48:56;;;;;;;111.97;50.83;;;;;;;1.97;45.51;98700.44;5113723;28;20441;-36
2022/03/20 18:51:25;;;;;;;104.10;48.97;;;;;;;1.96;46.24;98705.84;5113703;28;20486;-38
2022/03/20 18:53:52;;;;;;;82.30;46.00;;;;;;;1.96;46.59;98701.44;5113973;28;20452;-37
2022/03/20 18:56:20;;;;;;;114.03;48.50;;;;;;;1.94;46.58;98698.13;5113425;28;20595;-37
2022/03/20 18:58:47;;;;;;;110.90;50.50;;;;;;;1.91;46.57;98708.84;5113953;28;20438;-36
2022/03/20 19:01:15;;;;;;;96.53;46.70;;;;;;;1.89;46.72;98702.09;5113563;28;20503;-36
2022/03/20 19:03:43;;;;;;;78.20;39.53;;;;;;;1.86;46.59;98703.19;5113939;28;20438;-36
2022/03/20 19:06:10;;;;;;;72.80;40.07;;;;;;;1.84;47.58;98702.50;5113795;28;20468;-36
2022/03/20 19:08:39;;;;;;;53.70;28.20;;;;;;;1.79;47.51;98702.06;5113514;28;20558;-36
2022/03/20 19:11:07;;;;;;;57.77;25.43;;;;;;;1.68;47.66;98681.22;5113783;28;20470;-37
2022/03/20 19:13:34;;;;;;;57.00;26.23;;;;;;;1.61;48.22;98681.78;5113522;28;20521;-38
2022/03/20 19:16:02;;;;;;;62.67;27.17;;;;;;;1.76;48.44;98699.72;5113454;28;20481;-37
2022/03/20 19:18:30;;;;;;;66.57;27.30;;;;;;;1.74;48.78;98701.63;5113404;28;20525;-37
2022/03/20 19:20:57;;;;;;;64.77;30.90;;;;;;;1.74;48.98;98699.88;5113407;28;20446;-37
2022/03/20 19:23:26;;;;;;;57.37;27.60;;;;;;;1.69;48.68;98698.59;5113691;28;20449;-36
2022/03/20 19:25:55;;;;;;;56.40;27.67;;;;;;;1.66;48.79;98698.84;5113322;28;20470;-36
2022/03/20 19:28:22;;;;;;;65.53;29.90;;;;;;;1.61;48.80;98687.00;5113513;28;20489;-37
2022/03/20 19:30:50;;;;;;;72.03;34.90;;;;;;;1.69;48.76;98688.94;5113278;28;20532;-36
2022/03/20 19:33:18;;;;;;;69.93;31.90;;;;;;;1.67;48.77;98684.81;5115109;28;20477;-36
2022/03/20 19:41:17;;;;;;;67.97;28.90;;;;;;;1.64;48.86;98686.72;5117221;28;20418;-37
2022/03/20 19:43:45;;;;;;;60.20;26.47;;;;;;;1.65;48.86;98684.94;5117547;28;20438;-36
2022/03/20 19:46:13;;;;;;;69.53;26.50;;;;;;;1.64;48.85;98689.34;5117217;28;20453;-37
2022/03/20 19:48:40;;;;;;;57.03;28.60;;;;;;;1.66;48.60;98683.13;5117069;28;20490;-37
2022/03/20 19:51:12;;;;;;;58.37;25.77;;;;;;;1.66;48.61;98689.22;5117223;27;20473;-37
2022/03/20 19:53:40;;;;;;;48.00;22.37;;;;;;;1.64;48.19;98676.25;5137504;27;20540;-37
2022/03/20 19:56:07;;;;;;;59.20;23.50;;;;;;;1.65;48.91;98677.06;5137091;27;21000;-37
2022/03/20 19:58:36;;;;;;;54.27;24.57;;;;;;;1.62;49.19;98680.78;5137331;27;20464;-37
2022/03/20 20:01:03;;;;;;;54.93;25.10;;;;;;;1.60;48.77;98677.47;5137161;27;20813;-37
2022/03/20 20:03:31;;;;;;;52.03;25.60;;;;;;;1.59;48.97;98678.47;5137214;27;20528;-37
2022/03/20 20:05:58;;;;;;;52.50;24.73;;;;;;;1.56;48.46;98677.88;5137499;27;20441;-36
2022/03/20 20:08:27;;;;;;;60.53;28.50;;;;;;;1.49;48.58;98672.34;5137316;27;20816;-37
2022/03/20 20:10:54;;;;;;;77.77;32.07;;;;;;;1.48;49.07;98675.91;5137604;27;20442;-37
2022/03/20 20:16:08;;;;;;;63.97;27.83;;;;;;;1.43;49.46;98662.41;5137028;27;20409;-37
2022/03/20 20:18:35;;;;;;;50.00;26.10;;;;;;;1.41;49.36;98662.53;5136903;27;20529;-37
2022/03/20 20:21:03;;;;;;;66.13;27.83;;;;;;;1.42;49.54;98660.75;5136998;27;20437;-37
2022/03/20 20:23:30;;;;;;;69.13;32.70;;;;;;;1.37;49.67;98653.28;5136842;27;20441;-37
2022/03/20 20:25:57;;;;;;;89.93;34.33;;;;;;;1.35;49.76;98659.63;5137139;27;20498;-37
2022/03/20 20:28:24;;;;;;;59.30;27.40;;;;;;;1.29;48.66;98653.16;5137198;27;20485;-37
2022/03/20 20:30:52;;;;;;;44.37;25.00;;;;;;;1.29;48.35;98654.91;5136725;27;20449;-37
2022/03/20 20:33:20;;;;;;;46.07;24.00;;;;;;;1.28;48.36;98650.66;5137182;27;20437;-37
2022/03/20 20:35:48;;;;;;;51.90;21.87;;;;;;;1.27;47.71;98646.34;5136557;27;20798;-37
2022/03/20 20:38:15;;;;;;;51.93;21.93;;;;;;;1.26;48.13;98649.94;5136499;27;20527;-36
2022/03/20 20:40:42;;;;;;;42.03;21.87;;;;;;;1.28;48.46;98653.25;5136437;27;20477;-36
2022/03/20 20:43:11;;;;;;;37.90;20.90;;;;;;;1.32;47.53;98652.03;5136400;27;20542;-37
2022/03/20 20:45:39;;;;;;;27.97;15.10;;;;;;;1.34;47.72;98650.13;5136303;27;20485;-37
2022/03/20 20:48:06;;;;;;;37.60;17.07;;;;;;;1.37;47.69;98652.47;5137077;27;20584;-37
2022/03/20 20:50:35;;;;;;;58.20;22.30;;;;;;;1.40;48.07;98653.03;5136366;27;20440;-36
2022/03/20 20:53:02;;;;;;;25.83;15.30;;;;;;;1.39;48.64;98650.53;5136593;27;20441;-37
2022/03/20 20:55:30;;;;;;;33.40;15.07;;;;;;;1.37;48.88;98634.13;5136231;27;20445;-36
2022/03/20 20:57:57;;;;;;;33.23;13.87;;;;;;;1.41;48.05;98646.00;5135949;27;20481;-36
2022/03/20 21:00:25;;;;;;;26.87;14.30;;;;;;;1.44;47.51;98648.34;5136103;27;20437;-37
2022/03/20 21:02:52;;;;;;;41.30;18.70;;;;;;;1.45;47.47;98639.53;5136076;27;20441;-36
2022/03/20 21:05:20;;;;;;;34.17;17.63;;;;;;;1.48;47.93;98639.25;5136026;27;20529;-37
2022/03/20 21:13:18;;;;;;;123.40;37.17;;;;;;;1.49;46.93;98630.47;5136074;27;20409;-36
2022/03/20 21:15:45;;;;;;;148.87;40.10;;;;;;;1.48;47.02;98628.78;5135812;27;20622;-37
2022/03/20 21:18:13;;;;;;;103.20;34.13;;;;;;;1.48;47.25;98628.78;5135664;27;20451;-38
2022/03/20 21:20:40;;;;;;;135.73;42.20;;;;;;;1.49;47.65;98627.03;5136037;27;20472;-36
2022/03/20 21:23:09;;;;;;;115.43;39.10;;;;;;;1.46;48.61;98624.66;5135451;27;20437;-37
2022/03/20 21:25:36;;;;;;;173.57;55.27;;;;;;;1.45;48.84;98621.22;5135650;27;20441;-36
2022/03/20 21:28:04;;;;;;;125.00;48.07;;;;;;;1.44;50.13;98627.41;5135811;27;20580;-36
2022/03/20 21:30:32;;;;;;;153.90;52.77;;;;;;;1.39;50.74;98619.94;5135519;27;20441;-36
2022/03/20 21:32:59;;;;;;;129.00;41.50;;;;;;;1.36;51.27;98616.78;5135512;27;20453;-37
2022/03/20 21:35:27;;;;;;;61.87;27.70;;;;;;;1.31;51.54;98608.50;5135492;27;20441;-37
2022/03/20 21:37:55;;;;;;;40.27;18.53;;;;;;;1.28;51.33;98606.97;5135755;27;20846;-37
2022/03/20 21:40:23;;;;;;;64.20;27.67;;;;;;;1.30;51.34;98617.31;5135403;27;20946;-37
2022/03/20 21:42:51;;;;;;;68.37;27.50;;;;;;;1.28;51.63;98616.63;5135576;27;20444;-37
2022/03/20 21:45:18;;;;;;;58.97;26.83;;;;;;;1.27;51.65;98609.72;5135638;27;20548;-36
2022/03/20 21:47:46;;;;;;;41.40;21.07;;;;;;;1.27;51.68;98604.47;5135111;27;20473;-37
2022/03/20 21:50:15;;;;;;;34.23;17.17;;;;;;;1.23;51.46;98604.75;5135161;27;20451;-36
2022/03/20 21:52:43;;;;;;;36.23;17.87;;;;;;;1.22;50.23;98604.88;5135063;27;20524;-37
2022/03/20 21:55:11;;;;;;;35.40;18.57;;;;;;;1.23;49.06;98599.53;5135055;27;20452;-36
2022/03/20 21:57:40;;;;;;;28.47;14.63;;;;;;;1.25;48.95;98601.16;5134775;27;20520;-36
2022/03/20 22:00:12;;;;;;;41.40;17.23;;;;;;;1.22;48.11;98595.25;5134970;27;20527;-36
2022/03/20 22:02:39;;;;;;;28.13;13.83;;;;;;;1.19;48.21;98590.28;5135034;27;20425;-36
2022/03/20 22:05:07;;;;;;;31.33;17.07;;;;;;;1.08;47.53;98579.94;5135195;27;20441;-37
2022/03/20 22:07:35;;;;;;;31.80;15.00;;;;;;;1.18;47.73;98596.50;5134823;27;20457;-37
2022/03/20 22:10:03;;;;;;;36.20;17.73;;;;;;;1.12;47.75;98581.31;5134837;27;20437;-37
2022/03/20 22:12:30;;;;;;;42.40;17.93;;;;;;;1.00;48.68;98579.75;5134772;27;20445;-36
2022/03/20 22:14:59;;;;;;;40.67;16.97;;;;;;;1.00;49.95;98588.44;5134786;27;20449;-37
2022/03/20 22:17:28;;;;;;;31.10;16.73;;;;;;;0.96;50.08;98594.06;5135015;27;20515;-37
2022/03/20 22:19:55;;;;;;;32.00;15.53;;;;;;;0.95;50.03;98597.66;5134712;27;20940;-37
2022/03/20 22:22:23;;;;;;;21.73;14.37;;;;;;;0.95;50.45;98588.00;5134993;27;20854;-37
2022/03/20 22:24:50;;;;;;;25.03;13.43;;;;;;;0.96;50.40;98591.44;5134998;27;20469;-36
2022/03/20 22:27:17;;;;;;;22.27;14.87;;;;;;;0.94;50.52;98594.19;5134540;27;20441;-37
2022/03/20 22:29:45;;;;;;;27.43;14.07;;;;;;;0.93;50.73;98589.09;5134506;27;20573;-37
2022/03/20 22:32:15;;;;;;;19.17;13.00;;;;;;;0.90;51.29;98592.78;5134527;27;20437;-37
2022/03/20 22:37:38;;;;;;;20.47;12.07;;;;;;;0.90;51.52;98591.97;5134500;27;20483;-37
2022/03/20 22:37:40;;;;;;;20.60;9.77;;;;;;;0.86;51.39;98580.09;5134559;27;20935;-37
2022/03/20 22:40:09;;;;;;;26.97;11.90;;;;;;;0.90;51.58;98597.19;5134504;27;20457;-37
2022/03/20 22:42:36;;;;;;;22.03;12.40;;;;;;;0.90;51.66;98586.72;5134331;27;20445;-37
2022/03/20 22:45:04;;;;;;;23.40;12.90;;;;;;;0.86;50.94;98586.19;5134399;27;20448;-37
2022/03/20 22:47:33;;;;;;;18.27;12.40;;;;;;;0.86;51.07;98585.34;5134332;28;20774;-37
2022/03/20 22:50:02;;;;;;;27.27;12.77;;;;;;;0.84;51.47;98593.34;5134539;28;20485;-38
2022/03/20 22:52:30;;;;;;;27.97;13.37;;;;;;;0.83;51.08;98586.44;5134569;28;20442;-37
2022/03/20 22:54:57;;;;;;;29.90;13.63;;;;;;;0.85;51.09;98584.50;5134242;28;20472;-36
2022/03/20 22:57:25;;;;;;;27.33;13.67;;;;;;;0.87;50.97;98587.81;5134120;28;20481;-36
2022/03/20 22:59:53;;;;;;;25.03;14.17;;;;;;;0.87;51.04;98571.31;5134162;28;20792;-37
2022/03/20 23:02:20;;;;;;;30.97;13.43;;;;;;;0.86;51.31;98578.34;5134572;28;20498;-38
2022/03/20 23:04:49;;;;;;;25.37;13.37;;;;;;;0.87;50.91;98572.13;5134201;28;20448;-37
2022/03/20 23:07:17;;;;;;;28.50;14.93;;;;;;;0.91;50.14;98583.16;5134549;27;20452;-36
2022/03/20 23:09:44;;;;;;;26.03;11.70;;;;;;;0.91;49.92;98575.31;5139362;27;20496;-36
2022/03/20 23:12:12;;;;;;;16.73;11.00;;;;;;;0.92;50.40;98575.16;5138235;27;20441;-36
2022/03/20 23:14:40;;;;;;;19.97;12.77;;;;;;;0.95;50.64;98571.50;5138313;27;20445;-36
2022/03/20 23:17:07;;;;;;;30.03;14.50;;;;;;;0.97;50.66;98577.41;5138136;27;20456;-36
2022/03/20 23:19:35;;;;;;;19.03;12.07;;;;;;;0.98;49.03;98576.44;5138164;27;20457;-37
2022/03/20 23:22:05;;;;;;;19.77;12.00;;;;;;;1.05;47.06;98561.88;5138114;27;20528;-36
2022/03/20 23:24:32;;;;;;;46.47;18.40;;;;;;;1.02;48.54;98564.75;5138081;27;20516;-36
2022/03/20 23:26:59;;;;;;;42.50;20.90;;;;;;;1.02;49.27;98560.34;5138346;27;20524;-37
2022/03/20 23:29:27;;;;;;;40.67;21.53;;;;;;;1.03;49.08;98566.41;5137876;27;20489;-36
2022/03/20 23:31:54;;;;;;;28.30;16.47;;;;;;;1.05;49.24;98563.66;5138235;27;20811;-36
2022/03/20 23:34:21;;;;;;;28.60;14.50;;;;;;;1.04;48.04;98557.59;5137778;27;20452;-36
2022/03/20 23:36:49;;;;;;;36.40;19.67;;;;;;;1.04;47.32;98559.41;5137812;27;20928;-37
2022/03/20 23:39:18;;;;;;;37.50;19.57;;;;;;;1.05;48.45;98555.81;5137706;27;20456;-36
2022/03/20 23:44:29;;;;;;;22.27;11.13;;;;;;;1.10;46.51;98557.09;5138033;27;20755;-37
2022/03/20 23:46:57;;;;;;;15.37;8.80;;;;;;;1.15;46.20;98554.88;5138468;27;20524;-37
2022/03/20 23:49:24;;;;;;;18.73;13.27;;;;;;;1.19;47.44;98553.66;5138350;27;20489;-36
2022/03/20 23:51:51;;;;;;;18.43;11.90;;;;;;;1.09;48.79;98531.03;5137764;27;20523;-36
2022/03/20 23:54:20;;;;;;;24.10;12.70;;;;;;;1.08;49.84;98553.78;5137472;27;20443;-36
2022/03/20 23:56:48;;;;;;;18.73;11.60;;;;;;;1.05;49.84;98543.56;5137412;27;20537;-36
2022/03/20 23:59:15;;;;;;;20.50;9.67;;;;;;;1.03;47.21;98542.84;5137681;27;20441;-36
